Time;durP1;ratioP1;P1;durP2;ratioP2;P2;SDS_P1;SDS_P2;PMS_P1;PMS_P2;Temp;Humidity;BMP_temperature;BMP_pressure;BME280_temperature;BME280_humidity;BME280_pressure;Samples;Min_cycle;Max_cycle;Signal;HPM_P1;HPM_P2
2022/02/09 00:00:06;;;;;;;3.53;1.00;;;;;;;3.85;100.00;97555.00;5037667;28;20152;-75
2022/02/09 00:03:13;;;;;;;2.33;1.37;;;;;;;3.83;100.00;97545.59;5034892;28;20124;-74
2022/02/09 00:05:40;;;;;;;1.63;1.00;;;;;;;3.85;100.00;97552.38;5040645;28;20048;-75
2022/02/09 00:08:08;;;;;;;2.23;1.23;;;;;;;3.84;100.00;97563.72;5029293;28;20096;-74
2022/02/09 00:10:36;;;;;;;2.10;0.83;;;;;;;3.87;100.00;97547.94;5044624;28;20033;-76
2022/02/09 00:13:30;;;;;;;4.57;1.73;;;;;;;3.87;100.00;97547.94;5044240;28;20044;-76
2022/02/09 00:16:08;;;;;;;5.57;1.60;;;;;;;3.86;100.00;97541.06;5041974;28;20044;-74
2022/02/09 00:29:16;;;;;;;2.43;1.00;;;;;;;3.76;100.00;97529.50;5039142;28;20036;-76
2022/02/09 00:40:29;;;;;;;2.17;1.10;;;;;;;3.75;100.00;97530.41;4997920;28;20045;-75
2022/02/09 00:43:13;;;;;;;1.63;1.00;;;;;;;3.74;100.00;97536.53;5027913;28;20049;-77
2022/02/09 01:40:59;;;;;;;5.27;1.90;;;;;;;3.71;100.00;97519.31;5058872;28;20510;-75
2022/02/09 01:56:22;;;;;;;4.10;2.20;;;;;;;3.66;100.00;97510.97;5046878;28;20060;-75
2022/02/09 01:58:48;;;;;;;4.43;2.33;;;;;;;3.66;100.00;97505.75;5027510;28;20456;-75
2022/02/09 02:01:14;;;;;;;5.20;2.20;;;;;;;3.64;100.00;97498.94;5040533;28;20036;-74
2022/02/09 02:03:40;;;;;;;5.67;2.40;;;;;;;3.62;100.00;97499.06;5041819;28;20639;-74
2022/02/09 02:06:06;;;;;;;6.50;2.80;;;;;;;3.63;100.00;97502.50;5044592;28;20083;-75
2022/02/09 02:08:33;;;;;;;5.37;2.70;;;;;;;3.64;100.00;97498.94;5030036;28;20498;-74
2022/02/09 02:16:29;;;;;;;4.93;2.63;;;;;;;3.60;100.00;97498.28;5036533;28;20045;-75
2022/02/09 02:29:31;;;;;;;6.77;2.40;;;;;;;3.61;100.00;97473.09;5023328;28;20033;-76
2022/02/09 02:57:07;;;;;;;7.80;3.97;;;;;;;3.63;100.00;97451.28;5041007;28;20116;-75
2022/02/09 03:13:16;;;;;;;8.80;4.23;;;;;;;3.76;100.00;97441.88;5043480;28;20113;-74
2022/02/09 03:15:41;;;;;;;7.57;3.67;;;;;;;3.74;100.00;97454.13;5047118;28;20037;-74
2022/02/09 03:21:00;;;;;;;8.40;3.37;;;;;;;3.74;100.00;97453.28;5042568;28;20490;-75
2022/02/09 03:58:09;;;;;;;8.50;3.00;;;;;;;3.81;100.00;97432.97;5037095;28;20029;-75
2022/02/09 04:00:40;;;;;;;6.40;3.07;;;;;;;3.79;100.00;97435.66;5038046;28;20037;-75
2022/02/09 04:03:12;;;;;;;4.83;2.80;;;;;;;3.78;100.00;97434.78;5042855;28;20124;-74
2022/02/09 04:05:38;;;;;;;7.03;3.10;;;;;;;3.83;100.00;97431.94;5037711;28;20079;-76
2022/02/09 04:08:05;;;;;;;7.67;3.30;;;;;;;3.82;100.00;97427.66;5042725;28;20033;-76
2022/02/09 04:10:40;;;;;;;5.50;2.90;;;;;;;3.82;100.00;97425.03;5032873;28;20387;-75
2022/02/09 04:37:48;;;;;;;8.50;4.27;;;;;;;3.75;100.00;97421.13;5038157;28;20044;-75
2022/02/09 04:40:28;;;;;;;8.13;4.10;;;;;;;3.70;100.00;97413.59;5033281;28;20082;-75
2022/02/09 04:48:50;;;;;;;8.87;4.30;;;;;;;3.75;100.00;97410.72;5048239;28;20581;-75
2022/02/09 05:18:29;;;;;;;13.07;5.53;;;;;;;3.72;100.00;97396.16;5042876;28;20067;-76
2022/02/09 05:28:09;;;;;;;12.40;7.37;;;;;;;3.74;100.00;97407.28;5035901;28;20057;-74
2022/02/09 05:30:35;;;;;;;11.83;6.20;;;;;;;3.70;100.00;97405.78;5038907;28;20072;-75
2022/02/09 05:33:01;;;;;;;15.67;7.37;;;;;;;3.70;100.00;97402.34;5040528;28;20397;-74
2022/02/09 05:35:27;;;;;;;14.90;8.47;;;;;;;3.70;100.00;97391.94;5041581;28;20499;-76
2022/02/09 05:37:55;;;;;;;15.87;6.73;;;;;;;3.71;100.00;97397.06;5044812;28;20040;-75
2022/02/09 05:40:21;;;;;;;11.03;6.80;;;;;;;3.72;100.00;97405.69;5021714;28;20036;-75
2022/02/09 05:42:47;;;;;;;15.43;7.47;;;;;;;3.70;100.00;97399.75;5030762;28;20039;-76
2022/02/09 05:45:14;;;;;;;18.23;9.47;;;;;;;3.71;100.00;97406.63;5027787;28;20029;-75
2022/02/09 05:58:12;;;;;;;24.83;13.20;;;;;;;3.72;100.00;97408.28;5039023;28;20283;-76
2022/02/09 06:00:41;;;;;;;20.88;9.75;;;;;;;3.72;100.00;97410.91;5032040;28;20041;-75
2022/02/09 06:03:08;;;;;;;15.33;6.53;;;;;;;3.75;100.00;97413.31;5027485;28;20033;-75
2022/02/09 06:05:33;;;;;;;12.70;6.40;;;;;;;3.73;100.00;97413.44;5039273;28;20037;-75
2022/02/09 06:07:59;;;;;;;12.93;7.33;;;;;;;3.72;100.00;97409.16;5037299;28;20036;-76
2022/02/09 06:10:30;;;;;;;15.77;6.50;;;;;;;3.77;100.00;97407.13;5047042;28;20029;-75
2022/02/09 06:21:08;;;;;;;16.53;7.97;;;;;;;3.76;100.00;97417.63;5036957;28;20043;-75
2022/02/09 06:23:35;;;;;;;17.57;9.73;;;;;;;3.77;100.00;97417.53;5041755;28;20033;-75
2022/02/09 06:26:01;;;;;;;15.40;8.17;;;;;;;3.81;100.00;97414.75;5045063;28;20037;-75
2022/02/09 06:28:29;;;;;;;13.53;6.53;;;;;;;3.81;100.00;97412.16;5045557;28;20037;-75
2022/02/09 06:30:59;;;;;;;9.70;5.03;;;;;;;3.89;100.00;97416.00;5037385;28;20116;-75
2022/02/09 06:33:25;;;;;;;18.10;6.80;;;;;;;3.84;100.00;97411.97;5010779;28;20033;-74
2022/02/09 06:35:54;;;;;;;17.07;8.40;;;;;;;3.91;100.00;97408.91;5041980;28;20069;-75
2022/02/09 06:38:20;;;;;;;12.80;6.53;;;;;;;3.93;100.00;97409.69;5036757;28;20033;-74
2022/02/09 06:40:51;;;;;;;19.07;9.57;;;;;;;3.95;100.00;97409.56;5049636;28;20037;-76
2022/02/09 06:43:17;;;;;;;16.73;8.83;;;;;;;3.85;100.00;97411.88;5045128;28;20604;-76
2022/02/09 06:45:43;;;;;;;17.73;8.47;;;;;;;3.82;100.00;97411.22;5039164;28;20033;-75
2022/02/09 06:48:18;;;;;;;13.47;6.53;;;;;;;3.88;100.00;97408.25;5044591;28;20045;-75
2022/02/09 06:50:50;;;;;;;12.53;6.00;;;;;;;3.86;100.00;97410.13;5044405;28;20033;-75
2022/02/09 06:55:57;;;;;;;6.80;3.73;;;;;;;3.87;100.00;97402.22;5032784;28;20034;-75
2022/02/09 06:59:11;;;;;;;8.30;3.67;;;;;;;3.92;100.00;97405.41;5018108;28;20072;-75
2022/02/09 07:01:13;;;;;;;6.67;3.00;;;;;;;4.01;100.00;97398.81;5030913;28;20060;-75
2022/02/09 07:03:38;;;;;;;7.90;3.27;;;;;;;4.08;100.00;97407.94;5041054;28;20091;-75
2022/02/09 07:06:06;;;;;;;8.63;3.37;;;;;;;4.08;100.00;97409.69;5038646;28;20033;-75
2022/02/09 07:08:33;;;;;;;7.10;2.87;;;;;;;4.06;100.00;97408.94;5027157;28;20057;-75
2022/02/09 07:10:58;;;;;;;6.43;2.57;;;;;;;4.02;100.00;97405.69;5066446;28;20033;-75
2022/02/09 07:13:24;;;;;;;7.07;2.73;;;;;;;4.03;100.00;97407.38;5045027;28;20056;-75
2022/02/09 07:15:53;;;;;;;6.30;2.40;;;;;;;4.07;100.00;97410.63;5019117;28;20029;-75
2022/02/09 07:18:20;;;;;;;5.83;2.27;;;;;;;4.07;100.00;97408.03;5040252;28;20116;-75
2022/02/09 07:23:24;;;;;;;8.47;4.23;;;;;;;4.11;100.00;97410.34;5030200;28;20048;-75
2022/02/09 07:26:03;;;;;;;8.53;2.50;;;;;;;4.12;100.00;97405.97;5027948;28;20065;-75
2022/02/09 07:28:30;;;;;;;7.70;3.30;;;;;;;4.07;100.00;97413.22;5037324;28;20037;-76
2022/02/09 07:30:56;;;;;;;6.60;2.90;;;;;;;4.17;100.00;97414.38;5041845;28;20831;-77
2022/02/09 07:33:21;;;;;;;7.03;3.07;;;;;;;4.11;100.00;97414.72;5040742;28;20033;-75
2022/02/09 07:35:47;;;;;;;7.87;3.30;;;;;;;4.10;100.00;97416.50;5039651;28;20079;-75
2022/02/09 07:38:13;;;;;;;7.27;3.47;;;;;;;4.06;100.00;97417.59;5037819;28;20052;-75
2022/02/09 07:40:42;;;;;;;5.90;2.43;;;;;;;4.15;100.00;97409.25;5041432;28;20122;-75
2022/02/09 07:43:14;;;;;;;8.40;2.80;;;;;;;4.35;100.00;97404.63;5033676;28;20032;-74
2022/02/09 07:46:12;;;;;;;10.10;3.30;;;;;;;5.18;100.00;97408.19;5028658;28;20557;-75
2022/02/09 07:51:38;;;;;;;5.53;2.53;;;;;;;5.42;100.00;97409.22;5035410;28;20026;-75
2022/02/09 07:54:01;;;;;;;6.80;2.53;;;;;;;5.50;100.00;97411.34;5029308;28;20136;-75
2022/02/09 07:56:32;;;;;;;8.52;3.33;;;;;;;5.42;100.00;97409.22;5037626;28;20155;-76
2022/02/09 07:58:59;;;;;;;12.67;6.10;;;;;;;5.23;100.00;97411.34;5029716;28;20029;-76
2022/02/09 08:01:24;;;;;;;6.70;2.70;;;;;;;5.73;100.00;97404.63;5072005;28;20155;-75
2022/02/09 08:03:51;;;;;;;10.57;2.60;;;;;;;6.90;100.00;97400.19;5041148;28;20100;-76
2022/02/09 08:06:23;;;;;;;5.50;2.50;;;;;;;6.91;100.00;97399.28;5042047;28;20039;-76
2022/02/09 08:08:54;;;;;;;8.60;2.67;;;;;;;7.09;100.00;97399.75;5016889;28;20055;-76
2022/02/09 08:11:40;;;;;;;5.80;2.37;;;;;;;7.40;100.00;97394.91;5048653;28;20044;-76
2022/02/09 08:33:04;;;;;;;7.47;2.57;;;;;;;9.20;93.71;97369.88;5037338;28;20120;-76
2022/02/09 08:35:30;;;;;;;7.77;2.47;;;;;;;9.17;91.65;97370.94;5028931;28;20030;-76
2022/02/09 08:37:58;;;;;;;6.00;1.90;;;;;;;9.16;90.36;97365.81;5038604;28;20399;-75
2022/02/09 08:40:24;;;;;;;7.67;2.57;;;;;;;8.97;89.87;97363.81;5037724;28;20507;-76
2022/02/09 08:42:51;;;;;;;3.87;1.90;;;;;;;9.30;88.91;97364.72;5023255;28;20395;-76
2022/02/09 08:45:16;;;;;;;4.73;2.07;;;;;;;9.59;88.75;97362.34;5031459;28;20059;-76
2022/02/09 08:47:43;;;;;;;5.17;2.30;;;;;;;9.68;84.53;97358.97;5038239;28;20655;-76
2022/02/09 08:50:09;;;;;;;4.50;2.00;;;;;;;9.60;85.60;97359.59;5029895;28;20033;-76
2022/02/09 08:52:35;;;;;;;4.17;2.13;;;;;;;10.17;83.94;97357.53;5042122;28;20040;-76
2022/02/09 08:55:02;;;;;;;8.97;3.03;;;;;;;10.40;79.36;97355.63;5018585;28;20037;-76
2022/02/09 08:57:28;;;;;;;7.97;3.17;;;;;;;10.69;79.28;97349.63;5035698;28;20037;-76
2022/02/09 08:59:55;;;;;;;7.97;2.83;;;;;;;11.18;78.25;97346.19;5043710;28;20037;-76
2022/02/09 09:02:24;;;;;;;8.00;3.50;;;;;;;11.01;74.65;97345.03;5058366;28;20104;-76
2022/02/09 09:04:54;;;;;;;8.27;3.13;;;;;;;10.64;76.45;97349.22;5028783;28;20111;-76
2022/02/09 09:07:33;;;;;;;9.53;2.83;;;;;;;11.49;72.11;97343.44;5011378;28;20029;-76
2022/02/09 09:40:24;;;;;;;7.03;2.67;;;;;;;12.21;73.77;97326.38;5021610;28;20224;-77
2022/02/09 10:02:05;;;;;;;4.83;2.30;;;;;;;12.40;65.69;97328.94;5039593;28;20114;-76
2022/02/09 10:35:47;;;;;;;5.40;2.67;;;;;;;13.07;65.47;97318.22;5040026;28;20021;-77
2022/02/09 10:38:30;;;;;;;8.53;2.10;;;;;;;12.70;65.69;97308.56;5027596;28;20041;-77
2022/02/09 10:41:17;;;;;;;5.20;1.53;;;;;;;12.21;67.57;97307.91;5047867;28;20064;-76
2022/02/09 10:43:45;;;;;;;6.50;3.43;;;;;;;12.99;65.66;97303.13;5029847;28;20025;-76
2022/02/09 10:46:16;;;;;;;8.23;2.40;;;;;;;12.73;67.48;97302.97;5073866;28;20064;-76
2022/02/09 10:48:56;;;;;;;6.43;2.33;;;;;;;12.98;64.29;97304.94;5023590;28;20029;-76
2022/02/09 10:51:49;;;;;;;7.47;2.20;;;;;;;13.32;64.77;97296.41;5013147;28;20072;-79
2022/02/09 10:54:18;;;;;;;3.20;1.45;;;;;;;12.94;65.69;97300.94;5037355;28;20029;-76
2022/02/09 10:56:48;;;;;;;3.20;1.33;;;;;;;12.56;65.09;97290.56;5050399;28;20025;-78
2022/02/09 10:59:16;;;;;;;4.88;1.70;;;;;;;13.55;64.85;97280.94;5036465;28;20112;-76
2022/02/09 11:01:43;;;;;;;5.10;1.70;;;;;;;13.40;63.78;97282.44;5042543;28;20044;-76
2022/02/09 11:04:10;;;;;;;4.63;1.98;;;;;;;13.60;65.58;97275.19;5051804;28;20045;-77
2022/02/09 11:06:39;;;;;;;5.05;1.67;;;;;;;13.95;60.69;97274.31;5029632;28;20037;-77
2022/02/09 11:09:07;;;;;;;5.28;2.10;;;;;;;13.50;63.63;97269.16;5041280;28;20043;-77
2022/02/09 11:11:37;;;;;;;4.80;1.80;;;;;;;13.61;61.34;97260.97;5051022;28;20037;-77
2022/02/09 11:14:04;;;;;;;7.95;2.42;;;;;;;12.87;63.36;97268.16;5046010;28;20542;-77
2022/02/09 11:16:31;;;;;;;3.80;1.80;;;;;;;13.50;63.19;97259.41;5047705;28;20115;-83
2022/02/09 11:18:57;;;;;;;7.32;2.60;;;;;;;13.61;61.43;97251.22;5015132;28;20063;-81
2022/02/09 11:21:36;;;;;;;8.85;2.53;;;;;;;13.28;61.58;97244.88;5038042;28;20037;-83
2022/02/09 11:24:15;;;;;;;6.40;2.30;;;;;;;13.55;63.67;97243.13;5016276;28;20514;-82
2022/02/09 11:27:10;;;;;;;6.05;2.03;;;;;;;13.46;61.29;97238.75;5045054;28;20502;-82
2022/02/09 11:30:00;;;;;;;5.78;1.90;;;;;;;13.79;60.92;97232.72;5031478;28;20042;-84
2022/02/09 11:37:29;;;;;;;6.15;2.10;;;;;;;13.80;60.95;97231.72;5026818;28;20036;-81
2022/02/09 11:39:58;;;;;;;8.20;2.03;;;;;;;14.34;59.91;97220.94;5063045;28;20068;-83
2022/02/09 11:42:26;;;;;;;5.90;2.25;;;;;;;13.61;61.27;97223.97;5033206;28;20116;-81
2022/02/09 12:10:00;;;;;;;4.53;1.80;;;;;;;13.59;60.38;97210.09;5015851;28;20033;-77
2022/02/09 12:12:40;;;;;;;6.10;2.17;;;;;;;13.72;61.86;97215.81;5000157;28;20048;-77
2022/02/09 12:20:33;;;;;;;3.67;1.50;;;;;;;13.59;60.86;97199.53;5042759;28;20478;-76
2022/02/09 12:23:08;;;;;;;4.85;2.10;;;;;;;14.11;60.40;97194.22;5037267;28;20482;-77
2022/02/09 12:25:37;;;;;;;5.05;1.67;;;;;;;13.90;60.22;97198.06;5041717;28;20036;-77
2022/02/09 12:28:03;;;;;;;4.97;1.80;;;;;;;14.35;59.55;97193.50;5037633;28;20043;-77
2022/02/09 12:30:29;;;;;;;4.65;1.70;;;;;;;14.36;58.07;97187.22;5040774;28;20036;-77
2022/02/09 12:32:54;;;;;;;5.18;1.63;;;;;;;14.33;59.63;97185.72;5039096;28;20061;-77
2022/02/09 12:35:21;;;;;;;4.55;1.50;;;;;;;14.42;58.56;97185.75;5023130;28;20033;-76
2022/02/09 12:37:47;;;;;;;6.13;1.52;;;;;;;14.48;58.86;97172.69;5038390;28;20041;-80
2022/02/09 12:40:19;;;;;;;4.90;1.63;;;;;;;14.32;59.17;97180.59;5021407;28;20048;-78
2022/02/09 12:42:48;;;;;;;4.90;1.50;;;;;;;14.35;57.99;97172.31;5040214;28;20056;-77
2022/02/09 12:45:21;;;;;;;4.72;1.70;;;;;;;14.30;59.26;97162.22;5037107;28;20184;-77
2022/02/09 12:47:47;;;;;;;;;;;;;;;14.49;57.85;97162.97;5039948;28;20110;-77
2022/02/09 12:50:18;;;;;;;4.88;1.88;;;;;;;14.08;60.62;97168.06;5035407;28;19912;-77
2022/02/09 12:52:46;;;;;;;6.28;1.70;;;;;;;14.46;59.64;97160.63;5036006;28;20037;-77
2022/02/09 12:55:23;;;;;;;6.03;2.00;;;;;;;14.53;59.53;97151.91;5011881;28;20056;-77
2022/02/09 12:57:53;;;;;;;4.88;2.03;;;;;;;14.94;58.36;97156.47;5020291;28;20049;-77
2022/02/09 13:00:33;;;;;;;5.78;1.70;;;;;;;14.57;59.21;97157.72;5042329;28;20044;-78
2022/02/09 13:03:02;;;;;;;2.97;1.10;;;;;;;14.45;58.26;97153.66;5020434;28;20032;-77
2022/02/09 13:05:29;;;;;;;2.95;1.25;;;;;;;14.46;58.06;97152.69;5032985;28;20034;-77
2022/02/09 13:08:03;;;;;;;6.47;1.77;;;;;;;14.31;58.02;97148.00;5038831;28;20032;-77
2022/02/09 13:10:32;;;;;;;5.30;1.20;;;;;;;14.32;57.64;97154.16;5016516;28;20041;-77
2022/02/09 13:13:06;;;;;;;7.80;1.92;;;;;;;14.17;59.36;97153.91;5019398;28;20613;-77
2022/02/09 13:15:39;;;;;;;2.90;1.10;;;;;;;14.43;58.55;97140.63;5006276;28;20405;-76
2022/02/09 14:16:42;;;;;;;3.55;1.00;;;;;;;13.74;59.46;97097.50;5042952;28;20060;-78
2022/02/09 14:19:23;;;;;;;3.58;1.05;;;;;;;14.19;57.39;97093.75;5030992;28;20049;-77
2022/02/09 14:54:01;;;;;;;2.80;0.85;;;;;;;13.06;60.27;97071.81;5033569;28;20752;-77
2022/02/09 14:59:18;;;;;;;1.90;0.52;;;;;;;13.05;60.18;97077.25;5044414;28;19913;-77
2022/02/09 15:01:53;;;;;;;3.15;0.70;;;;;;;13.12;59.99;97068.56;5041117;28;20062;-77
2022/02/09 15:11:57;;;;;;;1.67;0.70;;;;;;;12.44;62.04;97058.63;5042918;28;20400;-77
2022/02/09 15:14:36;;;;;;;1.90;0.50;;;;;;;12.88;61.21;97063.13;5033958;28;20051;-76
2022/02/09 15:22:34;;;;;;;3.13;0.77;;;;;;;12.18;62.76;97066.41;5034433;28;20482;-76
2022/02/09 15:24:59;;;;;;;2.30;0.60;;;;;;;12.00;65.00;97058.50;5013822;28;20032;-76
2022/02/09 15:27:25;;;;;;;1.33;0.63;;;;;;;11.76;65.08;97063.44;5034695;28;20042;-77
2022/02/09 15:29:52;;;;;;;1.03;0.50;;;;;;;11.57;65.26;97065.19;5038868;28;20108;-77
2022/02/09 15:34:58;;;;;;;2.90;1.40;;;;;;;11.37;66.62;97074.13;5040824;28;20029;-76
2022/02/09 15:37:36;;;;;;;3.70;1.80;;;;;;;11.19;68.04;97067.94;5042266;28;20441;-77
2022/02/09 15:40:25;;;;;;;5.03;1.70;;;;;;;11.35;69.27;97067.34;5010136;28;20434;-77
2022/02/09 15:43:04;;;;;;;2.40;1.20;;;;;;;11.05;69.41;97067.41;5038878;28;20099;-77
2022/02/09 15:56:56;;;;;;;2.93;0.83;;;;;;;10.53;73.62;97051.16;5034282;28;20030;-77
2022/02/09 16:10:35;;;;;;;1.93;1.00;;;;;;;9.95;76.86;97047.59;5054476;28;20036;-78
2022/02/09 16:23:45;;;;;;;2.10;0.80;;;;;;;9.51;82.32;97047.03;5042056;28;20048;-76
2022/02/09 16:33:12;;;;;;;2.07;0.70;;;;;;;9.43;81.67;97051.16;5035812;28;20061;-76
2022/02/09 16:45:08;;;;;;;5.80;2.17;;;;;;;8.84;87.36;97064.09;5036336;28;20541;-76
2022/02/09 16:50:11;;;;;;;5.10;2.07;;;;;;;8.54;91.22;97047.31;5036284;28;20036;-76
2022/02/09 16:52:50;;;;;;;4.70;1.80;;;;;;;8.44;92.40;97051.66;5030856;28;20039;-76
2022/02/09 17:19:41;;;;;;;9.07;3.47;;;;;;;7.92;94.88;97048.00;5022253;28;20038;-76
2022/02/09 17:22:08;;;;;;;13.37;9.00;;;;;;;7.76;96.50;97041.34;5023463;28;20043;-76
2022/02/09 17:24:35;;;;;;;25.50;16.10;;;;;;;7.67;97.88;97038.63;5039566;28;20124;-77
2022/02/09 17:27:01;;;;;;;19.90;15.47;;;;;;;7.68;98.56;97037.69;5032599;28;20029;-76
2022/02/09 17:32:31;;;;;;;29.47;18.77;;;;;;;7.52;99.33;97035.47;5039685;28;20164;-76
2022/02/09 17:54:03;;;;;;;13.30;6.83;;;;;;;6.82;99.97;97052.19;5022789;28;20037;-76
2022/02/09 17:56:35;;;;;;;10.83;5.33;;;;;;;6.68;100.00;97053.22;5035570;28;20021;-77
2022/02/09 17:59:03;;;;;;;11.57;5.53;;;;;;;6.61;100.00;97047.63;5033443;28;20033;-76
2022/02/09 18:01:29;;;;;;;13.43;6.10;;;;;;;6.49;100.00;97053.75;5035415;28;20403;-75
2022/02/09 18:03:55;;;;;;;11.70;5.73;;;;;;;6.44;100.00;97049.81;5038808;28;20033;-76
2022/02/09 18:06:29;;;;;;;13.13;5.67;;;;;;;6.46;99.62;97050.53;5027049;28;20033;-75
2022/02/09 18:09:05;;;;;;;12.80;5.90;;;;;;;6.38;98.85;97044.09;5044474;28;20441;-75
2022/02/09 18:11:42;;;;;;;13.83;6.97;;;;;;;6.34;99.58;97039.22;5034752;28;20029;-75
2022/02/09 18:14:23;;;;;;;15.10;7.27;;;;;;;6.27;98.68;97046.69;5037053;28;20487;-74
2022/02/09 18:26:34;;;;;;;12.60;7.10;;;;;;;5.96;100.00;97039.41;5035962;28;20032;-75
2022/02/09 18:30:56;;;;;;;12.30;5.50;;;;;;;5.87;98.91;97035.66;5034220;28;20070;-74
2022/02/09 19:48:18;;;;;;;18.10;10.43;;;;;;;4.37;100.00;97014.75;5041040;28;20032;-75
2022/02/09 19:50:24;;;;;;;19.97;12.37;;;;;;;4.14;100.00;97013.66;5025860;28;20049;-75
2022/02/09 19:53:22;;;;;;;18.17;10.45;;;;;;;4.12;100.00;97020.72;5039615;28;20579;-75
2022/02/09 19:55:50;;;;;;;21.33;10.27;;;;;;;4.09;100.00;97015.69;5036906;28;20044;-75
2022/02/09 19:58:19;;;;;;;14.17;7.97;;;;;;;4.09;100.00;97013.09;5032623;28;20553;-75
2022/02/09 20:00:45;;;;;;;16.23;9.47;;;;;;;3.97;100.00;97007.78;5045181;28;20441;-75
2022/02/09 20:03:11;;;;;;;13.80;8.53;;;;;;;3.96;100.00;97010.50;5040806;28;20057;-74
2022/02/09 20:05:36;;;;;;;16.40;9.17;;;;;;;3.96;100.00;97013.09;5040335;28;20107;-75
2022/02/09 20:08:05;;;;;;;20.83;9.67;;;;;;;3.88;100.00;97015.34;5034220;28;20034;-76
2022/02/09 20:10:31;;;;;;;18.93;10.40;;;;;;;3.88;100.00;97008.34;5037739;28;20041;-77
2022/02/09 20:12:57;;;;;;;19.87;11.63;;;;;;;3.78;100.00;97012.47;5028974;28;20051;-76
2022/02/09 20:15:22;;;;;;;29.33;15.23;;;;;;;3.71;100.00;97013.81;5041773;28;20545;-76
2022/02/09 20:17:48;;;;;;;20.60;12.77;;;;;;;3.64;100.00;97008.16;5021270;28;20034;-76
2022/02/09 20:20:25;;;;;;;14.90;9.83;;;;;;;3.63;100.00;97008.28;5016180;28;20112;-75
2022/02/09 20:22:52;;;;;;;16.60;9.00;;;;;;;3.61;100.00;97015.31;5029107;28;20049;-76
2022/02/09 20:25:20;;;;;;;18.27;11.10;;;;;;;3.57;100.00;97019.06;5030329;28;20034;-76
2022/02/09 20:27:47;;;;;;;13.23;7.93;;;;;;;3.45;100.00;97023.25;5033420;28;20111;-75
2022/02/09 20:30:17;;;;;;;15.13;8.53;;;;;;;3.46;100.00;97015.38;5034560;28;20021;-76
2022/02/09 20:32:49;;;;;;;25.30;13.07;;;;;;;3.42;100.00;97019.09;5047337;28;20045;-76
2022/02/09 20:35:16;;;;;;;35.20;18.37;;;;;;;3.32;100.00;97020.59;5010274;28;20029;-75
2022/02/09 20:37:47;;;;;;;32.40;16.47;;;;;;;3.35;100.00;97010.00;5032958;28;20041;-76
2022/02/09 20:40:20;;;;;;;23.17;12.00;;;;;;;3.33;100.00;97008.44;5041667;28;20090;-76
2022/02/09 20:43:00;;;;;;;25.40;11.50;;;;;;;3.24;100.00;97008.06;5021171;28;20037;-76
2022/02/09 20:45:51;;;;;;;19.13;12.53;;;;;;;3.23;100.00;97008.16;5035569;28;20046;-76
2022/02/09 20:48:15;;;;;;;21.40;11.37;;;;;;;3.14;100.00;97003.53;5067212;28;20603;-76
2022/02/09 20:50:42;;;;;;;20.90;11.63;;;;;;;3.12;100.00;97007.97;5015872;28;20037;-76
2022/02/09 20:53:09;;;;;;;30.00;17.57;;;;;;;3.07;100.00;97001.31;5032470;28;20103;-75
2022/02/09 20:55:35;;;;;;;39.00;22.37;;;;;;;3.09;100.00;96997.81;5027089;28;20068;-76
2022/02/09 20:58:02;;;;;;;47.33;22.23;;;;;;;3.01;100.00;96999.06;5033155;28;20120;-75
2022/02/09 21:00:43;;;;;;;33.73;15.07;;;;;;;3.05;100.00;96987.59;5068996;28;20045;-75
2022/02/09 21:06:04;;;;;;;23.77;10.67;;;;;;;2.98;100.00;96996.66;5032455;28;20041;-75
2022/02/09 21:11:08;;;;;;;24.40;11.07;;;;;;;2.91;100.00;96994.53;5028248;28;20060;-76
2022/02/09 21:27:11;;;;;;;11.90;6.40;;;;;;;2.79;100.00;96996.13;5036909;28;20051;-75
2022/02/09 21:53:46;;;;;;;14.33;6.57;;;;;;;2.31;100.00;97001.56;5041798;28;20128;-75
2022/02/09 22:28:56;;;;;;;20.73;10.33;;;;;;;1.92;100.00;96983.09;5023350;28;20059;-74
2022/02/09 22:47:55;;;;;;;11.50;5.90;;;;;;;1.86;100.00;96960.94;5039935;28;20044;-76
2022/02/09 22:55:34;;;;;;;12.13;5.40;;;;;;;1.85;100.00;96952.31;5039284;28;20041;-75
2022/02/09 22:58:05;;;;;;;10.83;5.53;;;;;;;1.86;100.00;96953.16;5040237;28;20440;-75
2022/02/09 23:00:44;;;;;;;11.03;5.50;;;;;;;1.88;100.00;96956.50;5037125;28;20454;-76
2022/02/09 23:03:12;;;;;;;11.97;5.23;;;;;;;1.87;100.00;96954.81;5011689;28;20092;-75
2022/02/09 23:16:22;;;;;;;8.07;4.33;;;;;;;1.87;100.00;96950.44;5040290;28;20504;-76
